createdAt,value
2023-03-19T00:00:42.718Z,4.07
2023-03-19T00:03:09.497Z,4.55
2023-03-19T00:05:36.448Z,4.97
2023-03-19T00:08:03.248Z,5.40
2023-03-19T00:10:30.005Z,5.00
2023-03-19T00:12:56.769Z,5.03
2023-03-19T00:15:23.538Z,4.30
2023-03-19T00:17:50.328Z,4.93
2023-03-19T00:20:18.183Z,4.93
2023-03-19T00:22:45.019Z,5.32
2023-03-19T00:25:11.776Z,4.75
2023-03-19T00:27:38.771Z,4.72
2023-03-19T00:30:07.714Z,5.40
2023-03-19T00:32:36.548Z,5.47
2023-03-19T00:35:06.209Z,5.57
2023-03-19T00:37:33.520Z,5.60
2023-03-19T00:40:00.386Z,5.50
2023-03-19T00:42:27.440Z,5.75
2023-03-19T00:44:54.248Z,5.60
2023-03-19T00:47:21.201Z,5.28
2023-03-19T00:49:48.181Z,5.38
2023-03-19T00:52:15.219Z,5.07
2023-03-19T00:54:42.003Z,4.53
2023-03-19T00:57:09.428Z,5.43
2023-03-19T00:59:36.242Z,5.32
2023-03-19T01:02:03.993Z,5.22
2023-03-19T01:04:31.072Z,5.55
2023-03-19T01:06:58.477Z,4.63
2023-03-19T01:09:25.486Z,4.53
2023-03-19T01:11:52.275Z,4.93
2023-03-19T01:14:19.085Z,5.18
2023-03-19T01:16:45.845Z,4.88
2023-03-19T01:19:14.203Z,4.88
2023-03-19T01:21:42.915Z,5.80
2023-03-19T01:24:10.624Z,5.43
2023-03-19T01:26:37.449Z,4.78
2023-03-19T01:29:04.629Z,5.32
2023-03-19T01:31:31.506Z,5.50
2023-03-19T01:33:58.312Z,6.28
2023-03-19T01:36:25.068Z,5.70
2023-03-19T01:38:52.052Z,6.07
2023-03-19T01:41:18.827Z,5.47
2023-03-19T01:43:46.109Z,6.15
2023-03-19T01:46:31.590Z,5.72
2023-03-19T01:49:06.256Z,5.63
2023-03-19T01:51:40.204Z,5.95
2023-03-19T01:54:12.367Z,6.40
2023-03-19T01:56:41.924Z,6.22
2023-03-19T01:59:21.292Z,5.80
2023-03-19T02:01:58.682Z,6.15
2023-03-19T02:04:27.281Z,6.45
2023-03-19T02:06:58.960Z,5.68
2023-03-19T02:09:27.736Z,5.72
2023-03-19T02:11:55.410Z,6.32
2023-03-19T02:14:22.775Z,5.85
2023-03-19T02:16:49.693Z,5.93
2023-03-19T02:19:31.852Z,5.47
2023-03-19T02:22:01.449Z,5.90
2023-03-19T02:24:41.742Z,6.25
2023-03-19T02:27:09.177Z,6.13
2023-03-19T02:29:36.011Z,6.75
2023-03-19T02:32:03.669Z,5.88
2023-03-19T02:34:37.625Z,6.13
2023-03-19T02:37:12.973Z,6.03
2023-03-19T02:39:59.658Z,6.15
2023-03-19T02:42:30.059Z,6.15
2023-03-19T02:44:58.060Z,6.05
2023-03-19T02:47:26.453Z,6.30
2023-03-19T02:49:53.733Z,6.85
2023-03-19T02:52:21.223Z,6.28
2023-03-19T02:54:48.468Z,6.05
2023-03-19T02:57:15.726Z,5.95
2023-03-19T02:59:42.495Z,6.15
2023-03-19T03:02:10.180Z,5.78
2023-03-19T03:04:37.244Z,6.00
2023-03-19T03:07:06.092Z,6.30
2023-03-19T03:09:33.064Z,6.40
2023-03-19T03:11:59.963Z,6.80
2023-03-19T03:14:26.916Z,6.35
2023-03-19T03:16:53.672Z,6.15
2023-03-19T03:19:21.453Z,6.43
2023-03-19T03:21:48.308Z,6.53
2023-03-19T03:24:15.351Z,6.15
2023-03-19T03:26:42.451Z,6.75
2023-03-19T03:29:09.350Z,6.97
2023-03-19T03:31:36.516Z,6.63
2023-03-19T03:34:03.532Z,6.80
2023-03-19T03:36:30.318Z,6.35
2023-03-19T03:38:57.237Z,6.40
2023-03-19T03:41:24.087Z,6.78
2023-03-19T03:43:51.033Z,6.63
2023-03-19T03:46:18.062Z,6.95
2023-03-19T03:48:44.989Z,6.57
2023-03-19T03:51:11.956Z,6.05
2023-03-19T03:53:38.734Z,7.68
2023-03-19T03:56:06.068Z,6.28
2023-03-19T03:58:33.096Z,6.20
2023-03-19T04:00:59.875Z,6.13
2023-03-19T04:03:27.087Z,6.45
2023-03-19T04:05:53.868Z,6.43
2023-03-19T04:08:20.747Z,5.90
2023-03-19T04:10:47.525Z,6.57
2023-03-19T04:13:14.390Z,6.75
2023-03-19T04:15:45.026Z,6.80
2023-03-19T04:18:11.846Z,7.30
2023-03-19T04:20:38.665Z,7.15
2023-03-19T04:23:05.464Z,7.57
2023-03-19T04:25:32.287Z,6.80
2023-03-19T04:27:59.421Z,6.65
2023-03-19T04:30:26.204Z,7.20
2023-03-19T04:32:53.465Z,7.13
2023-03-19T04:35:20.301Z,7.50
2023-03-19T04:37:48.526Z,7.45
2023-03-19T04:40:17.103Z,7.40
2023-03-19T04:42:44.619Z,7.20
2023-03-19T04:45:11.947Z,7.15
2023-03-19T04:47:38.911Z,7.28
2023-03-19T04:50:07.891Z,7.25
2023-03-19T04:52:35.037Z,7.45
2023-03-19T04:55:01.837Z,7.85
2023-03-19T04:57:28.582Z,7.68
2023-03-19T04:59:55.335Z,7.28
2023-03-19T05:02:22.104Z,7.60
2023-03-19T05:04:48.876Z,7.95
2023-03-19T05:07:15.968Z,6.75
2023-03-19T05:09:43.970Z,7.45
2023-03-19T05:12:12.273Z,7.88
2023-03-19T05:14:39.113Z,7.45
2023-03-19T05:17:06.386Z,8.45
2023-03-19T05:19:34.015Z,7.65
2023-03-19T05:22:00.865Z,6.75
2023-03-19T05:24:27.622Z,6.88
2023-03-19T05:26:54.394Z,8.07
2023-03-19T05:29:21.961Z,7.13
2023-03-19T05:31:48.761Z,8.43
2023-03-19T05:34:15.608Z,7.32
2023-03-19T05:36:42.390Z,8.57
2023-03-19T05:39:09.171Z,7.95
2023-03-19T05:41:36.438Z,6.97
2023-03-19T05:44:03.679Z,7.60
2023-03-19T05:46:30.471Z,8.93
2023-03-19T05:48:57.274Z,7.95
2023-03-19T05:51:24.034Z,8.40
2023-03-19T05:53:50.771Z,8.27
2023-03-19T05:56:18.491Z,8.70
2023-03-19T05:58:45.629Z,8.40
2023-03-19T06:01:12.507Z,8.43
2023-03-19T06:03:39.399Z,8.85
2023-03-19T06:06:06.409Z,7.97
2023-03-19T06:08:33.763Z,7.40
2023-03-19T06:11:00.598Z,8.65
2023-03-19T06:13:27.490Z,8.32
2023-03-19T06:15:54.316Z,8.15
2023-03-19T06:18:21.428Z,8.95
2023-03-19T06:20:48.405Z,8.55
2023-03-19T06:23:16.408Z,7.45
2023-03-19T06:25:44.592Z,7.85
2023-03-19T06:28:11.864Z,8.32
2023-03-19T06:30:38.625Z,7.70
2023-03-19T06:33:05.511Z,6.60
2023-03-19T06:35:32.348Z,7.90
2023-03-19T06:38:02.168Z,7.85
2023-03-19T06:40:29.177Z,8.15
2023-03-19T06:42:56.354Z,8.40
2023-03-19T06:45:23.273Z,7.10
2023-03-19T06:47:53.391Z,7.43
2023-03-19T06:50:21.459Z,6.88
2023-03-19T06:52:48.218Z,6.68
2023-03-19T06:55:15.064Z,6.75
2023-03-19T06:57:41.866Z,6.65
2023-03-19T07:00:11.526Z,7.63
2023-03-19T07:02:38.383Z,7.05
2023-03-19T07:05:05.745Z,6.15
2023-03-19T07:07:32.581Z,7.53
2023-03-19T07:09:59.336Z,6.95
2023-03-19T07:12:28.899Z,6.65
2023-03-19T07:14:56.298Z,6.00
2023-03-19T07:17:24.773Z,5.05
2023-03-19T07:19:51.927Z,5.88
2023-03-19T07:22:19.236Z,4.85
2023-03-19T07:24:46.042Z,6.43
2023-03-19T07:27:12.879Z,5.25
2023-03-19T07:29:39.745Z,5.25
2023-03-19T07:32:07.643Z,4.85
2023-03-19T07:34:34.445Z,5.82
2023-03-19T07:37:01.359Z,4.68
2023-03-19T07:39:28.192Z,4.47
2023-03-19T07:41:55.087Z,4.82
2023-03-19T07:44:21.858Z,4.75
2023-03-19T07:46:48.648Z,4.80
2023-03-19T07:49:15.918Z,5.15
2023-03-19T07:51:42.713Z,3.85
2023-03-19T07:54:09.500Z,4.30
2023-03-19T07:56:36.332Z,4.38
2023-03-19T07:59:03.107Z,3.90
2023-03-19T08:01:29.891Z,3.90
2023-03-19T08:03:56.645Z,4.50
2023-03-19T08:06:23.625Z,5.50
2023-03-19T08:08:50.495Z,5.13
2023-03-19T08:11:17.298Z,3.83
2023-03-19T08:13:44.460Z,4.15
2023-03-19T08:16:11.577Z,4.13
2023-03-19T08:18:38.353Z,4.35
2023-03-19T08:21:05.389Z,4.05
2023-03-19T08:23:32.266Z,4.30
2023-03-19T08:25:59.408Z,3.88
2023-03-19T08:28:26.270Z,4.10
2023-03-19T08:30:53.126Z,4.45
2023-03-19T08:33:19.922Z,4.38
2023-03-19T08:35:46.730Z,3.97
2023-03-19T08:38:13.548Z,4.63
2023-03-19T08:40:40.476Z,3.92
2023-03-19T08:43:07.303Z,4.03
2023-03-19T08:45:34.064Z,4.10
2023-03-19T08:48:00.823Z,3.70
2023-03-19T08:50:27.611Z,3.03
2023-03-19T08:52:54.423Z,3.03
2023-03-19T08:55:21.176Z,2.67
2023-03-19T08:57:47.998Z,2.90
2023-03-19T09:00:15.836Z,2.70
2023-03-19T09:02:42.593Z,2.47
2023-03-19T09:05:09.853Z,3.47
2023-03-19T09:07:36.727Z,3.17
2023-03-19T09:10:03.845Z,2.85
2023-03-19T09:12:30.585Z,2.90
2023-03-19T09:14:57.356Z,2.38
2023-03-19T09:17:24.145Z,2.25
2023-03-19T09:19:50.902Z,2.47
2023-03-19T09:22:17.734Z,1.80
2023-03-19T09:24:44.701Z,2.28
2023-03-19T09:27:11.553Z,2.05
2023-03-19T09:29:38.351Z,1.58
2023-03-19T09:32:06.048Z,1.77
2023-03-19T09:34:33.067Z,2.03
2023-03-19T09:36:59.870Z,1.50
2023-03-19T09:39:26.646Z,1.85
2023-03-19T09:42:38.903Z,1.80
2023-03-19T09:45:14.782Z,1.50
2023-03-19T09:47:43.645Z,1.65
2023-03-19T09:50:16.176Z,1.35
2023-03-19T09:53:21.702Z,1.40
2023-03-19T09:55:52.445Z,1.17
2023-03-19T09:58:23.142Z,0.90
2023-03-19T10:00:51.859Z,0.80
2023-03-19T10:03:31.546Z,1.00
2023-03-19T10:06:23.959Z,0.90
2023-03-19T10:09:30.496Z,0.93
2023-03-19T10:12:20.897Z,0.95
2023-03-19T10:15:02.047Z,0.88
2023-03-19T10:17:41.605Z,0.60
2023-03-19T10:20:20.359Z,0.70
2023-03-19T10:23:20.193Z,0.57
2023-03-19T10:25:47.677Z,0.60
2023-03-19T10:28:21.105Z,0.77
2023-03-19T10:31:29.346Z,0.68
2023-03-19T10:34:33.647Z,0.95
2023-03-19T10:37:14.114Z,0.80
2023-03-19T10:39:44.458Z,0.65
2023-03-19T10:42:21.310Z,0.85
2023-03-19T10:45:04.996Z,0.77
2023-03-19T10:47:39.963Z,1.33
2023-03-19T10:50:08.427Z,0.63
2023-03-19T10:52:37.356Z,0.82
2023-03-19T10:55:36.926Z,0.90
2023-03-19T10:58:16.175Z,0.75
2023-03-19T11:00:47.776Z,1.05
2023-03-19T11:03:31.704Z,0.82
2023-03-19T11:06:27.969Z,0.82
2023-03-19T11:09:13.491Z,0.88
2023-03-19T11:11:53.566Z,2.55
2023-03-19T11:14:36.325Z,1.55
2023-03-19T11:17:33.780Z,1.30
2023-03-19T11:20:22.419Z,0.85
2023-03-19T11:22:50.586Z,0.90
2023-03-19T11:25:38.370Z,0.73
2023-03-19T11:28:23.119Z,1.08
2023-03-19T11:31:15.870Z,0.70
2023-03-19T11:34:01.535Z,0.80
2023-03-19T11:37:08.077Z,1.00
2023-03-19T11:40:14.415Z,1.30
2023-03-19T11:43:38.700Z,0.98
2023-03-19T11:46:36.728Z,0.90
2023-03-19T11:49:31.655Z,0.90
2023-03-19T11:52:12.119Z,0.68
2023-03-19T11:54:50.460Z,0.70
2023-03-19T11:57:57.696Z,0.80
2023-03-19T12:00:52.225Z,0.85
2023-03-19T12:03:58.393Z,0.80
2023-03-19T12:06:35.273Z,0.80
2023-03-19T12:09:28.587Z,0.82
2023-03-19T12:12:26.820Z,0.80
2023-03-19T12:15:23.808Z,0.75
2023-03-19T12:18:16.377Z,1.38
2023-03-19T12:20:59.402Z,0.90
2023-03-19T12:24:06.489Z,1.00
2023-03-19T12:27:04.202Z,0.85
2023-03-19T12:29:46.032Z,0.82
2023-03-19T12:33:03.526Z,1.10
2023-03-19T12:35:35.672Z,0.90
2023-03-19T12:38:41.499Z,1.20
2023-03-19T12:41:23.352Z,1.27
2023-03-19T12:44:11.876Z,1.15
2023-03-19T12:47:04.359Z,0.93
2023-03-19T12:49:42.764Z,0.80
2023-03-19T12:52:25.038Z,1.20
2023-03-19T12:55:20.646Z,0.55
2023-03-19T12:57:49.455Z,1.13
2023-03-19T13:00:37.836Z,2.28
2023-03-19T13:03:15.412Z,1.38
2023-03-19T13:05:48.232Z,1.33
2023-03-19T13:08:39.237Z,1.13
2023-03-19T13:11:35.278Z,0.90
2023-03-19T13:14:18.001Z,0.77
2023-03-19T13:16:57.688Z,0.88
2023-03-19T13:19:45.287Z,0.88
2023-03-19T13:22:18.438Z,0.80
2023-03-19T13:24:47.980Z,0.70
2023-03-19T13:27:22.754Z,0.90
2023-03-19T13:30:18.243Z,0.85
2023-03-19T13:32:51.752Z,0.80
2023-03-19T13:35:44.448Z,0.80
2023-03-19T13:38:15.217Z,1.00
2023-03-19T13:40:48.512Z,0.77
2023-03-19T13:43:42.986Z,1.00
2023-03-19T13:46:12.717Z,0.68
2023-03-19T13:48:53.603Z,1.23
2023-03-19T13:51:20.415Z,0.90
2023-03-19T13:54:01.080Z,1.08
2023-03-19T13:56:30.601Z,0.85
2023-03-19T13:59:26.781Z,0.88
2023-03-19T14:01:54.042Z,0.63
2023-03-19T14:04:30.740Z,0.77
2023-03-19T14:07:21.553Z,0.82
2023-03-19T14:10:04.726Z,0.75
2023-03-19T14:12:41.425Z,1.17
2023-03-19T14:15:11.719Z,1.00
2023-03-19T14:17:43.504Z,1.00
2023-03-19T14:20:14.550Z,0.82
2023-03-19T14:23:11.373Z,0.88
2023-03-19T14:26:05.353Z,1.10
2023-03-19T14:28:47.788Z,1.50
2023-03-19T14:31:42.766Z,1.10
2023-03-19T14:37:16.102Z,1.10
2023-03-19T14:39:45.432Z,1.60
2023-03-19T14:42:39.639Z,1.23
2023-03-19T14:45:35.022Z,1.40
2023-03-19T14:48:26.084Z,1.48
2023-03-19T14:51:48.451Z,1.20
2023-03-19T14:54:56.864Z,1.38
2023-03-19T14:57:34.606Z,1.60
2023-03-19T15:00:06.715Z,1.40
2023-03-19T15:02:37.192Z,1.55
2023-03-19T15:05:25.891Z,1.88
2023-03-19T15:08:02.607Z,1.70
2023-03-19T15:10:52.889Z,2.30
2023-03-19T15:13:53.968Z,2.55
2023-03-19T15:17:28.955Z,1.63
2023-03-19T15:20:00.435Z,2.22
2023-03-19T15:22:33.792Z,2.30
2023-03-19T15:25:15.182Z,1.90
2023-03-19T15:27:42.676Z,1.98
2023-03-19T15:30:30.478Z,2.38
2023-03-19T15:33:10.583Z,2.22
2023-03-19T15:35:39.314Z,1.88
2023-03-19T15:38:12.015Z,1.70
2023-03-19T15:40:41.691Z,1.70
2023-03-19T15:43:11.942Z,1.30
2023-03-19T15:45:40.468Z,1.48
2023-03-19T15:48:19.769Z,1.70
2023-03-19T15:50:51.178Z,1.70
2023-03-19T15:53:28.194Z,1.73
2023-03-19T15:55:55.683Z,1.58
2023-03-19T15:58:32.811Z,2.17
2023-03-19T16:01:01.245Z,1.98
2023-03-19T16:03:39.069Z,2.10
2023-03-19T16:06:13.716Z,1.77
2023-03-19T16:08:50.713Z,1.83
2023-03-19T16:11:37.989Z,2.17
2023-03-19T16:14:14.117Z,1.60
2023-03-19T16:16:42.830Z,1.73
2023-03-19T16:19:47.732Z,1.52
2023-03-19T16:22:28.692Z,1.80
2023-03-19T16:24:56.119Z,1.85
2023-03-19T16:27:44.416Z,1.85
2023-03-19T16:30:21.676Z,2.03
2023-03-19T16:33:03.202Z,1.73
2023-03-19T16:35:33.612Z,2.10
2023-03-19T16:38:24.609Z,1.80
2023-03-19T16:41:19.041Z,2.08
2023-03-19T16:43:47.368Z,1.90
2023-03-19T16:46:16.519Z,1.60
2023-03-19T16:48:43.691Z,1.80
2023-03-19T16:51:18.517Z,1.80
2023-03-19T16:53:46.493Z,2.10
2023-03-19T16:56:15.441Z,2.40
2023-03-19T16:58:44.870Z,1.45
2023-03-19T17:01:21.672Z,1.50
2023-03-19T17:03:49.693Z,1.63
2023-03-19T17:06:17.710Z,1.65
2023-03-19T17:08:45.588Z,1.80
2023-03-19T17:11:36.784Z,1.48
2023-03-19T17:14:05.467Z,2.10
2023-03-19T17:16:32.565Z,1.60
2023-03-19T17:18:59.374Z,1.80
2023-03-19T17:21:33.250Z,1.80
2023-03-19T17:24:19.078Z,1.95
2023-03-19T17:26:45.860Z,1.80
2023-03-19T17:29:12.619Z,2.50
2023-03-19T17:31:39.614Z,2.28
2023-03-19T17:34:20.962Z,2.40
2023-03-19T17:36:55.997Z,2.50
2023-03-19T17:39:23.925Z,2.60
2023-03-19T17:41:52.097Z,2.00
2023-03-19T17:44:18.889Z,2.10
2023-03-19T17:46:54.277Z,2.10
2023-03-19T17:49:31.746Z,2.35
2023-03-19T17:51:59.456Z,2.55
2023-03-19T17:54:27.178Z,2.47
2023-03-19T17:56:55.250Z,2.30
2023-03-19T17:59:22.798Z,2.80
2023-03-19T18:01:49.788Z,3.10
2023-03-19T18:04:19.730Z,2.42
2023-03-19T18:06:50.528Z,2.95
2023-03-19T18:09:21.834Z,2.70
2023-03-19T18:11:48.684Z,2.88
2023-03-19T18:14:15.585Z,2.72
2023-03-19T18:16:43.023Z,2.90
2023-03-19T18:19:44.331Z,3.03
2023-03-19T18:22:17.465Z,3.50
2023-03-19T18:24:44.587Z,3.45
2023-03-19T18:27:11.512Z,3.95
2023-03-19T18:29:38.341Z,3.97
2023-03-19T18:32:12.812Z,3.75
2023-03-19T18:34:39.706Z,3.75
2023-03-19T18:37:06.549Z,3.03
2023-03-19T18:39:37.924Z,3.35
2023-03-19T18:42:04.683Z,3.63
2023-03-19T18:44:31.642Z,3.45
2023-03-19T18:46:58.432Z,3.22
2023-03-19T18:49:27.192Z,3.10
2023-03-19T18:52:02.573Z,2.90
2023-03-19T18:54:31.834Z,3.05
2023-03-19T18:57:02.296Z,2.97
2023-03-19T18:59:32.704Z,2.50
2023-03-19T19:02:22.003Z,3.22
2023-03-19T19:04:49.008Z,3.00
2023-03-19T19:07:16.658Z,2.92
2023-03-19T19:09:43.583Z,2.70
2023-03-19T19:12:18.707Z,2.65
2023-03-19T19:14:46.023Z,3.33
2023-03-19T19:17:19.090Z,3.38
2023-03-19T19:19:46.107Z,2.80
2023-03-19T19:22:17.806Z,2.92
2023-03-19T19:24:45.248Z,3.42
2023-03-19T19:27:26.036Z,3.22
2023-03-19T19:29:53.316Z,3.30
2023-03-19T19:32:26.993Z,3.78
2023-03-19T19:34:54.373Z,3.60
2023-03-19T19:37:23.342Z,3.00
2023-03-19T19:39:51.113Z,3.58
2023-03-19T19:42:20.734Z,3.40
2023-03-19T19:44:53.536Z,3.33
2023-03-19T19:47:20.322Z,3.17
2023-03-19T19:49:47.099Z,3.17
2023-03-19T19:52:17.153Z,3.60
2023-03-19T19:54:45.544Z,3.30
2023-03-19T19:57:24.512Z,3.47
2023-03-19T19:59:52.602Z,3.70
2023-03-19T20:02:26.407Z,3.72
2023-03-19T20:04:53.688Z,3.28
2023-03-19T20:07:20.582Z,3.90
2023-03-19T20:09:48.230Z,3.50
2023-03-19T20:12:24.007Z,3.53
2023-03-19T20:14:51.978Z,3.40
2023-03-19T20:17:20.957Z,3.55
2023-03-19T20:19:48.389Z,2.85
2023-03-19T20:22:15.175Z,3.17
2023-03-19T20:24:42.362Z,3.33
2023-03-19T20:27:22.412Z,3.17
2023-03-19T20:29:50.584Z,4.07
2023-03-19T20:32:36.597Z,3.60
2023-03-19T20:35:07.680Z,3.97
2023-03-19T20:37:34.458Z,4.20
2023-03-19T20:40:01.238Z,4.05
2023-03-19T20:42:30.222Z,3.72
2023-03-19T20:44:59.573Z,3.97
2023-03-19T20:47:26.412Z,3.75
2023-03-19T20:49:53.215Z,3.45
2023-03-19T20:52:20.966Z,3.60
2023-03-19T20:54:48.248Z,4.32
2023-03-19T20:57:30.642Z,4.15
2023-03-19T21:00:03.538Z,4.60
2023-03-19T21:02:30.366Z,4.35
2023-03-19T21:04:57.369Z,4.57
2023-03-19T21:07:34.395Z,4.15
2023-03-19T21:10:05.528Z,3.45
2023-03-19T21:12:33.915Z,3.85
2023-03-19T21:15:01.187Z,4.75
2023-03-19T21:17:28.870Z,5.82
2023-03-19T21:19:56.789Z,4.93
2023-03-19T21:22:29.199Z,5.00
2023-03-19T21:25:06.346Z,4.88
2023-03-19T21:27:36.299Z,4.38
2023-03-19T21:30:05.841Z,4.13
2023-03-19T21:32:32.871Z,3.72
2023-03-19T21:34:59.752Z,4.28
2023-03-19T21:37:26.528Z,4.40
2023-03-19T21:39:53.283Z,4.10
2023-03-19T21:42:23.397Z,4.75
2023-03-19T21:44:57.404Z,5.38
2023-03-19T21:47:25.632Z,3.80
2023-03-19T21:49:52.444Z,4.50
2023-03-19T21:52:21.636Z,4.65
2023-03-19T21:54:49.014Z,3.85
2023-03-19T21:57:17.288Z,4.03
2023-03-19T21:59:47.769Z,3.85
2023-03-19T22:02:43.321Z,3.75
2023-03-19T22:05:22.925Z,4.32
2023-03-19T22:07:50.034Z,3.72
2023-03-19T22:10:18.081Z,4.43
2023-03-19T22:12:45.679Z,3.95
2023-03-19T22:15:29.984Z,4.15
2023-03-19T22:17:58.307Z,4.15
2023-03-19T22:20:26.255Z,4.18
2023-03-19T22:22:53.049Z,4.20
2023-03-19T22:25:22.126Z,3.70
2023-03-19T22:27:50.533Z,4.10
2023-03-19T22:30:27.674Z,3.85
2023-03-19T22:32:57.184Z,4.22
2023-03-19T22:35:24.658Z,3.75
2023-03-19T22:37:51.439Z,3.83
2023-03-19T22:40:19.194Z,4.22
2023-03-19T22:42:49.288Z,4.85
2023-03-19T22:45:28.072Z,5.07
2023-03-19T22:47:57.089Z,5.35
2023-03-19T22:50:31.811Z,4.95
2023-03-19T22:52:59.166Z,5.00
2023-03-19T22:55:25.974Z,5.40
2023-03-19T22:57:52.718Z,5.95
2023-03-19T23:00:23.557Z,6.28
2023-03-19T23:02:57.322Z,5.57
2023-03-19T23:05:35.834Z,6.60
2023-03-19T23:08:06.380Z,6.50
2023-03-19T23:10:33.506Z,6.70
2023-03-19T23:13:00.301Z,7.60
2023-03-19T23:15:30.791Z,6.45
2023-03-19T23:17:59.566Z,6.78
2023-03-19T23:20:28.855Z,7.57
2023-03-19T23:22:56.404Z,7.95
2023-03-19T23:25:27.352Z,7.13
2023-03-19T23:28:01.535Z,8.90
2023-03-19T23:30:31.571Z,9.68
2023-03-19T23:33:01.907Z,8.82
2023-03-19T23:35:30.643Z,9.93
2023-03-19T23:37:57.980Z,9.35
2023-03-19T23:40:29.926Z,11.07
2023-03-19T23:42:58.096Z,11.05
2023-03-19T23:45:36.853Z,13.02
2023-03-19T23:48:46.772Z,12.18
2023-03-19T23:51:15.293Z,12.57
2023-03-19T23:53:43.008Z,13.38
2023-03-19T23:56:20.577Z,13.68
2023-03-19T23:58:50.471Z,13.35
